Time;durP1;ratioP1;P1;durP2;ratioP2;P2;SDS_P1;SDS_P2;PMS_P1;PMS_P2;Temp;Humidity;BMP_temperature;BMP_pressure;BME280_temperature;BME280_humidity;BME280_pressure;Samples;Min_cycle;Max_cycle;Signal;HPM_P1;HPM_P2
2023/05/06 00:00:21;;;;;;;8.27;2.70;;;13.00;57.40;;;;;;4824553;29;20058;-88
2023/05/06 00:02:48;;;;;;;9.63;2.65;;;13.00;57.60;;;;;;4809192;29;20046;-88
2023/05/06 00:05:17;;;;;;;10.13;3.05;;;13.00;57.30;;;;;;4824505;29;20066;-88
2023/05/06 00:07:45;;;;;;;8.85;2.45;;;13.00;57.80;;;;;;4809160;29;20065;-89
2023/05/06 00:10:12;;;;;;;6.72;2.42;;;13.00;57.50;;;;;;4809389;29;20058;-88
2023/05/06 00:12:39;;;;;;;7.77;2.47;;;13.00;57.90;;;;;;4824516;29;20077;-88
2023/05/06 00:15:06;;;;;;;6.38;2.13;;;13.00;58.10;;;;;;4808712;29;20046;-87
2023/05/06 00:17:34;;;;;;;7.40;2.67;;;12.90;58.50;;;;;;4809079;29;20065;-88
2023/05/06 00:20:02;;;;;;;6.28;2.03;;;12.90;58.60;;;;;;4809031;29;20058;-88
2023/05/06 00:22:29;;;;;;;6.40;2.17;;;12.80;58.70;;;;;;4809469;29;20042;-88
2023/05/06 00:24:56;;;;;;;7.63;2.57;;;12.80;58.50;;;;;;4794611;29;20042;-89
2023/05/06 00:27:23;;;;;;;5.80;2.20;;;12.80;58.70;;;;;;4808569;29;20517;-88
2023/05/06 00:29:50;;;;;;;7.30;2.65;;;12.90;58.60;;;;;;4805817;29;20039;-88
2023/05/06 00:32:17;;;;;;;7.65;2.33;;;12.90;57.80;;;;;;4809639;29;20443;-88
2023/05/06 00:34:44;;;;;;;7.18;2.67;;;13.00;57.80;;;;;;4793604;29;20054;-88
2023/05/06 00:37:11;;;;;;;6.97;2.40;;;13.00;57.80;;;;;;4808338;29;20054;-88
2023/05/06 00:39:38;;;;;;;8.15;2.38;;;13.00;57.60;;;;;;4793743;29;20087;-88
2023/05/06 00:42:05;;;;;;;7.32;2.30;;;13.00;57.90;;;;;;4808527;29;20054;-88
2023/05/06 00:44:32;;;;;;;6.65;2.58;;;13.00;57.80;;;;;;4811821;29;20589;-88
2023/05/06 00:47:00;;;;;;;9.35;2.50;;;13.00;58.30;;;;;;4808918;29;20050;-87
2023/05/06 00:49:29;;;;;;;8.33;2.73;;;12.90;58.00;;;;;;4812820;29;20402;-88
2023/05/06 00:51:57;;;;;;;7.30;2.10;;;12.90;58.40;;;;;;4807244;29;20517;-88
2023/05/06 00:54:25;;;;;;;7.18;2.70;;;12.90;58.30;;;;;;4808585;29;20059;-88
2023/05/06 00:56:53;;;;;;;6.30;2.38;;;12.80;58.20;;;;;;4793524;29;20099;-88
2023/05/06 00:59:21;;;;;;;8.82;2.33;;;12.90;58.40;;;;;;4823909;29;20081;-88
2023/05/06 01:01:51;;;;;;;6.63;2.20;;;12.80;58.50;;;;;;4792376;29;20095;-88
2023/05/06 01:04:18;;;;;;;7.78;2.45;;;12.80;58.50;;;;;;4793574;29;20505;-88
2023/05/06 01:06:49;;;;;;;7.43;2.53;;;12.80;58.70;;;;;;4808220;29;20573;-89
2023/05/06 01:09:21;;;;;;;7.57;2.53;;;12.70;58.80;;;;;;4793515;29;20046;-89
2023/05/06 01:12:11;;;;;;;7.47;2.30;;;12.70;58.90;;;;;;4808573;29;20467;-89
2023/05/06 01:14:53;;;;;;;8.10;2.67;;;12.70;58.80;;;;;;4823253;29;20133;-88
2023/05/06 01:17:26;;;;;;;8.23;2.60;;;12.70;58.90;;;;;;4803012;29;20087;-88
2023/05/06 01:19:58;;;;;;;9.13;3.00;;;12.60;59.30;;;;;;4810093;29;20050;-89
2023/05/06 01:22:27;;;;;;;8.20;2.88;;;12.60;59.40;;;;;;4793700;29;20050;-88
2023/05/06 01:24:54;;;;;;;7.57;2.83;;;12.50;59.70;;;;;;4810774;29;20054;-88
2023/05/06 01:27:22;;;;;;;7.73;2.40;;;12.50;59.90;;;;;;4804058;29;20113;-88
2023/05/06 01:29:49;;;;;;;7.60;2.60;;;12.40;60.40;;;;;;4805125;29;20043;-88
2023/05/06 01:32:32;;;;;;;10.00;3.85;;;12.50;60.30;;;;;;4793235;29;20051;-88
2023/05/06 01:35:11;;;;;;;8.77;3.00;;;12.40;60.40;;;;;;4823435;29;20095;-88
2023/05/06 01:38:01;;;;;;;9.07;3.30;;;12.30;60.80;;;;;;4823581;29;20050;-89
2023/05/06 01:40:30;;;;;;;9.00;3.10;;;12.20;60.80;;;;;;4823143;29;20042;-88
2023/05/06 01:43:01;;;;;;;7.88;2.72;;;12.20;61.20;;;;;;4793502;29;20050;-89
2023/05/06 01:45:32;;;;;;;8.85;3.30;;;12.10;61.10;;;;;;4793581;29;20390;-88
2023/05/06 01:48:00;;;;;;;8.15;3.05;;;12.10;61.30;;;;;;4805280;29;20498;-89
2023/05/06 01:50:28;;;;;;;12.18;3.63;;;12.00;61.30;;;;;;4810830;29;20049;-89
2023/05/06 01:53:01;;;;;;;9.73;3.00;;;12.00;61.40;;;;;;4808413;29;20045;-88
2023/05/06 01:55:28;;;;;;;8.95;3.42;;;12.00;61.50;;;;;;4813521;29;20417;-89
2023/05/06 01:57:55;;;;;;;7.05;3.05;;;12.00;61.80;;;;;;4808125;29;20050;-89
2023/05/06 02:00:23;;;;;;;8.88;3.10;;;12.00;61.80;;;;;;4822933;29;20051;-88
2023/05/06 02:02:51;;;;;;;8.20;3.40;;;11.90;62.10;;;;;;4793234;29;20050;-88
2023/05/06 02:05:19;;;;;;;8.77;3.07;;;11.90;62.20;;;;;;4812658;29;20484;-88
2023/05/06 02:07:50;;;;;;;8.93;3.22;;;11.80;62.60;;;;;;4807741;29;20957;-89
2023/05/06 02:10:18;;;;;;;9.20;3.30;;;11.80;63.00;;;;;;4808182;29;20465;-89
2023/05/06 02:12:50;;;;;;;8.25;3.33;;;11.80;62.90;;;;;;4793437;29;20129;-88
2023/05/06 02:15:18;;;;;;;8.23;3.63;;;11.70;63.00;;;;;;4792837;29;20115;-89
2023/05/06 02:17:45;;;;;;;9.17;3.70;;;11.70;62.90;;;;;;4807485;29;20057;-89
2023/05/06 02:20:12;;;;;;;9.43;3.20;;;11.70;63.40;;;;;;4791520;29;20042;-89
2023/05/06 02:22:39;;;;;;;9.43;3.47;;;11.70;63.20;;;;;;4822422;29;20047;-89
2023/05/06 02:25:07;;;;;;;8.68;3.13;;;11.70;63.60;;;;;;4807245;29;20047;-88
2023/05/06 02:27:34;;;;;;;9.13;3.30;;;11.70;63.40;;;;;;4795055;29;20054;-88
2023/05/06 02:30:05;;;;;;;7.00;2.77;;;11.70;63.10;;;;;;4808359;29;20482;-88
2023/05/06 02:32:32;;;;;;;9.05;4.05;;;11.60;63.40;;;;;;4804654;29;20050;-89
2023/05/06 02:34:59;;;;;;;9.52;3.53;;;11.60;63.80;;;;;;4806071;29;20464;-89
2023/05/06 02:37:26;;;;;;;9.20;3.25;;;11.60;63.50;;;;;;4789560;29;20401;-88
2023/05/06 02:39:53;;;;;;;8.45;3.10;;;11.60;63.80;;;;;;4788683;29;20043;-88
2023/05/06 02:42:20;;;;;;;9.00;3.00;;;11.70;63.70;;;;;;4810972;29;20095;-88
2023/05/06 02:44:47;;;;;;;9.15;3.03;;;11.70;63.70;;;;;;4803642;29;20057;-88
2023/05/06 02:47:14;;;;;;;8.50;3.15;;;11.70;63.50;;;;;;4804185;29;20057;-88
2023/05/06 02:49:43;;;;;;;8.45;2.90;;;11.70;64.00;;;;;;4822600;29;20039;-88
2023/05/06 02:52:11;;;;;;;9.00;3.03;;;11.70;63.90;;;;;;4808517;29;20047;-89
2023/05/06 02:54:38;;;;;;;9.80;3.30;;;11.80;63.70;;;;;;4791220;29;20169;-89
2023/05/06 02:57:05;;;;;;;7.25;2.80;;;11.70;63.80;;;;;;4805697;29;20065;-89
2023/05/06 02:59:33;;;;;;;9.73;3.08;;;11.80;63.70;;;;;;4821527;29;20053;-88
2023/05/06 03:02:03;;;;;;;8.60;3.05;;;11.80;63.90;;;;;;4815783;29;20138;-88
2023/05/06 03:04:30;;;;;;;8.80;3.10;;;11.70;63.60;;;;;;4824972;29;20051;-89
2023/05/06 03:06:57;;;;;;;9.50;3.00;;;11.70;63.50;;;;;;4821298;29;20046;-88
2023/05/06 03:09:25;;;;;;;9.85;3.20;;;11.70;63.60;;;;;;4824413;29;20505;-88
2023/05/06 03:11:52;;;;;;;9.48;2.90;;;11.70;63.40;;;;;;4818543;29;20046;-88
2023/05/06 03:14:20;;;;;;;8.95;3.30;;;11.70;63.80;;;;;;4810327;29;20069;-88
2023/05/06 03:16:48;;;;;;;9.60;3.30;;;11.70;63.80;;;;;;4824006;29;20050;-88
2023/05/06 03:19:15;;;;;;;8.13;3.27;;;11.80;64.00;;;;;;4810557;29;20058;-88
2023/05/06 03:21:43;;;;;;;8.93;3.35;;;11.80;63.70;;;;;;4815581;29;20502;-89
2023/05/06 03:24:10;;;;;;;7.85;3.00;;;11.80;64.10;;;;;;4808596;29;20050;-89
2023/05/06 03:26:38;;;;;;;8.10;3.15;;;11.80;64.00;;;;;;4824562;29;20095;-88
2023/05/06 03:29:06;;;;;;;11.30;4.18;;;11.80;64.20;;;;;;4810043;29;20110;-89
2023/05/06 03:31:34;;;;;;;9.30;3.63;;;11.80;64.20;;;;;;4794207;29;20494;-88
2023/05/06 03:34:04;;;;;;;8.65;3.45;;;11.70;64.70;;;;;;4816879;29;20045;-89
2023/05/06 03:36:33;;;;;;;8.77;3.35;;;11.70;64.70;;;;;;4824289;29;20052;-88
2023/05/06 03:39:00;;;;;;;11.07;3.42;;;11.60;64.90;;;;;;4809971;29;20065;-88
2023/05/06 03:41:30;;;;;;;10.25;3.88;;;11.60;65.00;;;;;;4823813;29;20050;-89
2023/05/06 03:43:57;;;;;;;11.43;3.80;;;11.50;65.40;;;;;;4794893;29;20831;-88
2023/05/06 03:46:26;;;;;;;10.90;4.30;;;11.60;65.10;;;;;;4792359;29;21548;-89
2023/05/06 03:48:53;;;;;;;9.05;3.80;;;11.60;65.50;;;;;;4822449;29;20061;-88
2023/05/06 03:51:21;;;;;;;9.05;3.58;;;11.50;65.30;;;;;;4809308;29;20043;-88
2023/05/06 03:53:51;;;;;;;9.27;3.85;;;11.50;65.50;;;;;;4794826;29;20047;-89
2023/05/06 03:56:21;;;;;;;9.40;4.10;;;11.50;65.50;;;;;;4808173;29;20043;-89
2023/05/06 03:58:53;;;;;;;10.60;4.00;;;11.50;65.70;;;;;;4809527;29;20043;-88
2023/05/06 04:01:22;;;;;;;9.23;3.85;;;11.50;65.90;;;;;;4816189;29;20046;-88
2023/05/06 04:03:49;;;;;;;9.68;4.05;;;11.50;65.90;;;;;;4823005;29;20054;-88
2023/05/06 04:06:17;;;;;;;9.40;4.18;;;11.50;66.10;;;;;;4811552;29;20054;-88
2023/05/06 04:08:44;;;;;;;9.33;3.83;;;11.50;66.20;;;;;;4821771;29;20100;-88
2023/05/06 04:11:11;;;;;;;10.68;4.07;;;11.50;66.40;;;;;;4794071;29;20056;-88
2023/05/06 04:13:38;;;;;;;10.77;4.32;;;11.50;66.60;;;;;;4792120;29;20517;-89
2023/05/06 04:16:11;;;;;;;9.23;3.95;;;11.50;66.50;;;;;;4788958;29;20541;-88
2023/05/06 04:18:42;;;;;;;10.13;4.40;;;11.50;66.40;;;;;;4788243;29;20065;-88
2023/05/06 04:21:13;;;;;;;9.73;3.87;;;11.50;67.00;;;;;;4800516;29;20105;-89
2023/05/06 04:23:43;;;;;;;11.68;4.38;;;11.50;67.00;;;;;;4788516;29;20079;-88
2023/05/06 04:26:13;;;;;;;8.48;4.00;;;11.50;66.80;;;;;;4787182;29;20142;-88
2023/05/06 04:28:41;;;;;;;10.45;4.47;;;11.50;66.80;;;;;;4784958;30;20063;-88
2023/05/06 04:31:13;;;;;;;10.30;4.53;;;11.70;66.30;;;;;;4793278;29;20105;-88
2023/05/06 04:33:44;;;;;;;11.23;4.27;;;11.70;66.50;;;;;;4788692;29;20533;-88
2023/05/06 04:36:17;;;;;;;9.43;4.05;;;11.80;66.50;;;;;;4790773;29;20051;-89
2023/05/06 04:38:56;;;;;;;8.73;4.00;;;11.90;65.90;;;;;;4784445;29;20047;-89
2023/05/06 04:41:24;;;;;;;9.68;4.05;;;12.00;65.90;;;;;;4800856;29;20458;-89
2023/05/06 04:43:52;;;;;;;9.32;4.05;;;12.00;65.60;;;;;;4769868;30;20051;-89
2023/05/06 04:46:22;;;;;;;9.60;3.77;;;12.10;65.90;;;;;;4799469;29;20410;-88
2023/05/06 04:48:51;;;;;;;8.32;3.60;;;12.20;65.90;;;;;;4768824;30;20051;-88
2023/05/06 04:51:19;;;;;;;9.60;4.15;;;12.30;65.40;;;;;;4792305;29;20146;-88
2023/05/06 04:53:47;;;;;;;9.18;3.58;;;12.30;65.40;;;;;;4787463;29;20071;-88
2023/05/06 04:56:14;;;;;;;8.98;3.70;;;12.30;65.70;;;;;;4772748;30;20062;-88
2023/05/06 04:58:41;;;;;;;9.60;4.10;;;12.40;65.80;;;;;;4787306;29;20051;-88
2023/05/06 05:01:10;;;;;;;9.60;3.72;;;12.50;65.50;;;;;;4772165;30;20047;-88
2023/05/06 05:03:40;;;;;;;9.30;3.42;;;12.50;65.40;;;;;;4785392;29;20051;-88
2023/05/06 05:06:08;;;;;;;9.48;3.97;;;12.60;65.50;;;;;;4793317;29;20423;-88
2023/05/06 05:08:35;;;;;;;10.82;3.75;;;12.60;65.70;;;;;;4792403;29;20081;-88
2023/05/06 05:11:05;;;;;;;8.43;3.53;;;12.70;65.10;;;;;;4793924;29;20051;-89
2023/05/06 05:13:33;;;;;;;8.50;3.85;;;12.80;64.80;;;;;;4788112;29;20043;-88
2023/05/06 05:16:01;;;;;;;10.70;4.35;;;12.90;64.60;;;;;;4790460;29;20055;-89
2023/05/06 05:18:32;;;;;;;8.63;3.90;;;12.90;64.80;;;;;;4805315;29;20082;-89
2023/05/06 05:21:05;;;;;;;8.90;3.50;;;13.00;64.90;;;;;;4804108;29;20059;-88
2023/05/06 05:23:34;;;;;;;7.97;3.03;;;13.00;64.60;;;;;;4801146;29;20050;-88
2023/05/06 05:26:02;;;;;;;9.00;3.22;;;13.10;64.40;;;;;;4803185;29;20096;-88
2023/05/06 05:28:29;;;;;;;9.25;3.80;;;13.20;63.80;;;;;;4790507;29;20134;-88
2023/05/06 05:31:05;;;;;;;7.90;3.33;;;13.20;63.70;;;;;;4803780;29;20104;-89
2023/05/06 05:33:35;;;;;;;9.32;3.80;;;13.30;64.40;;;;;;4820811;29;20046;-88
2023/05/06 05:36:06;;;;;;;8.00;3.07;;;13.40;63.80;;;;;;4790774;29;20510;-88
2023/05/06 05:38:34;;;;;;;8.57;3.58;;;13.40;63.30;;;;;;4805512;29;20429;-88
2023/05/06 05:41:02;;;;;;;8.82;3.30;;;13.50;63.70;;;;;;4788983;29;20055;-89
2023/05/06 05:43:30;;;;;;;8.13;3.30;;;13.50;63.70;;;;;;4790048;29;20510;-88
2023/05/06 05:45:59;;;;;;;9.18;3.75;;;13.50;63.60;;;;;;4799711;29;20431;-89
2023/05/06 05:48:31;;;;;;;9.30;3.60;;;13.60;63.40;;;;;;4790329;29;20520;-89
2023/05/06 05:51:03;;;;;;;9.30;3.70;;;13.60;63.00;;;;;;4790354;29;20075;-88
2023/05/06 05:53:31;;;;;;;10.73;4.03;;;13.70;63.60;;;;;;4788683;29;20515;-89
2023/05/06 05:55:58;;;;;;;7.40;3.17;;;13.90;62.80;;;;;;4804482;29;20057;-88
2023/05/06 05:58:26;;;;;;;10.05;3.78;;;14.00;63.00;;;;;;4790026;29;20126;-88
2023/05/06 06:00:58;;;;;;;9.17;3.30;;;14.10;62.30;;;;;;4790225;29;20051;-89
2023/05/06 06:03:26;;;;;;;8.88;3.50;;;14.20;62.20;;;;;;4785014;29;20138;-89
2023/05/06 06:05:54;;;;;;;8.20;3.40;;;14.30;62.40;;;;;;4788469;29;20054;-88
2023/05/06 06:08:23;;;;;;;11.88;3.10;;;14.40;61.80;;;;;;4811272;29;20409;-89
2023/05/06 06:10:51;;;;;;;7.55;3.50;;;14.50;61.70;;;;;;4796337;29;20043;-89
2023/05/06 06:13:22;;;;;;;7.50;3.07;;;14.60;61.60;;;;;;4820132;29;20042;-88
2023/05/06 06:15:53;;;;;;;7.75;3.08;;;14.70;60.70;;;;;;4820140;29;20065;-89
2023/05/06 06:18:26;;;;;;;7.93;3.25;;;14.90;60.40;;;;;;4804724;29;20051;-88
2023/05/06 06:20:59;;;;;;;7.82;3.40;;;14.90;60.60;;;;;;4805245;29;20046;-88
2023/05/06 06:23:26;;;;;;;8.98;4.38;;;15.00;60.90;;;;;;4819102;29;20042;-88
2023/05/06 06:25:53;;;;;;;8.33;4.33;;;15.10;61.00;;;;;;4804824;29;20058;-89
2023/05/06 06:28:20;;;;;;;9.88;3.83;;;15.20;61.40;;;;;;4805769;29;20050;-89
2023/05/06 06:30:47;;;;;;;8.55;3.55;;;15.20;61.30;;;;;;4810546;29;20053;-88
2023/05/06 06:33:14;;;;;;;10.45;3.72;;;15.30;60.40;;;;;;4806834;29;20055;-88
2023/05/06 06:35:41;;;;;;;8.10;3.47;;;15.30;60.50;;;;;;4808372;29;20126;-88
2023/05/06 06:38:11;;;;;;;8.57;3.50;;;15.30;60.00;;;;;;4808331;29;20054;-89
2023/05/06 06:40:38;;;;;;;8.48;3.15;;;15.30;60.10;;;;;;4811285;29;20167;-88
2023/05/06 06:43:18;;;;;;;8.70;3.30;;;15.30;60.70;;;;;;4814123;29;20039;-88
2023/05/06 06:45:53;;;;;;;8.95;3.92;;;15.40;61.00;;;;;;4816231;29;20042;-88
2023/05/06 06:48:20;;;;;;;8.18;2.90;;;15.50;60.80;;;;;;4807998;29;20054;-88
2023/05/06 06:50:47;;;;;;;7.03;3.30;;;15.60;60.90;;;;;;4795391;29;20043;-87
2023/05/06 06:53:15;;;;;;;7.47;2.70;;;15.60;61.10;;;;;;4822425;29;20112;-87
2023/05/06 06:55:43;;;;;;;8.50;2.88;;;15.70;60.80;;;;;;4823400;29;20047;-86
2023/05/06 06:58:10;;;;;;;6.88;2.90;;;15.80;60.10;;;;;;4806128;29;20100;-87
2023/05/06 07:00:37;;;;;;;8.35;2.92;;;15.80;60.70;;;;;;4792512;29;20074;-86
2023/05/06 07:03:04;;;;;;;8.13;3.00;;;15.90;60.90;;;;;;4807097;29;20043;-86
2023/05/06 07:05:31;;;;;;;8.85;3.38;;;16.00;61.20;;;;;;4822043;29;20043;-88
2023/05/06 07:07:58;;;;;;;10.73;3.00;;;16.00;60.00;;;;;;4792314;29;20058;-88
2023/05/06 07:10:25;;;;;;;7.32;3.38;;;16.10;60.50;;;;;;4815859;29;20134;-88
2023/05/06 07:12:52;;;;;;;8.63;3.05;;;16.30;60.50;;;;;;4803757;29;20480;-88
2023/05/06 07:15:20;;;;;;;9.33;3.47;;;16.40;59.30;;;;;;4774465;29;20049;-88
2023/05/06 07:17:47;;;;;;;9.18;3.05;;;16.70;59.90;;;;;;4788627;29;20559;-87
2023/05/06 07:20:15;;;;;;;9.07;3.60;;;16.80;60.30;;;;;;4774158;30;20498;-88
2023/05/06 07:22:43;;;;;;;9.13;3.70;;;17.00;58.30;;;;;;4773872;30;20108;-88
2023/05/06 07:25:10;;;;;;;7.32;3.38;;;17.10;59.70;;;;;;4788644;29;20396;-88
2023/05/06 07:27:37;;;;;;;9.10;3.33;;;17.20;58.80;;;;;;4774011;30;20062;-88
2023/05/06 07:30:05;;;;;;;9.68;3.85;;;17.50;58.40;;;;;;4773062;30;20052;-88
2023/05/06 07:32:32;;;;;;;8.05;3.60;;;17.60;59.00;;;;;;4774766;30;20055;-86
2023/05/06 07:35:00;;;;;;;8.10;3.65;;;17.80;57.80;;;;;;4774085;29;20051;-86
2023/05/06 07:37:27;;;;;;;7.85;3.70;;;18.00;56.20;;;;;;4773559;30;20575;-87
2023/05/06 07:39:56;;;;;;;9.87;3.73;;;18.10;57.40;;;;;;4772477;30;20499;-89
2023/05/06 07:42:23;;;;;;;8.60;3.80;;;18.20;57.00;;;;;;4803616;29;20052;-89
2023/05/06 07:44:50;;;;;;;8.07;3.50;;;18.20;55.80;;;;;;4774278;30;20055;-89
2023/05/06 07:47:26;;;;;;;9.18;3.03;;;18.10;56.70;;;;;;4772998;30;20130;-89
2023/05/06 07:49:54;;;;;;;14.35;3.67;;;18.10;56.30;;;;;;4778249;29;20051;-88
2023/05/06 07:52:22;;;;;;;8.80;3.33;;;18.10;56.70;;;;;;4788715;29;20047;-89
2023/05/06 07:54:50;;;;;;;10.57;3.00;;;18.10;57.20;;;;;;4773879;30;20474;-89
2023/05/06 07:57:17;;;;;;;10.23;3.65;;;18.00;57.20;;;;;;4792031;29;20070;-88
2023/05/06 07:59:47;;;;;;;7.38;3.42;;;17.90;57.80;;;;;;4773993;30;20407;-88
2023/05/06 08:02:15;;;;;;;10.48;3.60;;;17.90;58.00;;;;;;4772756;30;20496;-88
2023/05/06 08:04:42;;;;;;;7.30;3.37;;;17.90;59.00;;;;;;4773464;30;20146;-88
2023/05/06 08:07:10;;;;;;;8.15;3.10;;;17.90;58.30;;;;;;4771621;29;20060;-89
2023/05/06 08:09:38;;;;;;;9.13;3.50;;;17.90;58.20;;;;;;4785715;29;20043;-89
2023/05/06 08:12:06;;;;;;;8.75;3.55;;;17.90;57.80;;;;;;4809301;29;20043;-90
2023/05/06 08:14:33;;;;;;;7.45;3.65;;;18.00;59.00;;;;;;4794184;29;20494;-89
2023/05/06 08:17:01;;;;;;;11.37;3.80;;;17.90;58.00;;;;;;4797030;29;20061;-90
2023/05/06 08:19:28;;;;;;;11.30;3.38;;;17.90;57.60;;;;;;4794327;29;20073;-89
2023/05/06 08:21:58;;;;;;;11.82;3.90;;;17.90;57.80;;;;;;4790681;29;20467;-90
2023/05/06 08:24:34;;;;;;;8.90;3.80;;;17.90;57.70;;;;;;4806789;29;20447;-90
2023/05/06 08:27:05;;;;;;;9.35;4.05;;;18.00;58.40;;;;;;4808571;29;20054;-89
2023/05/06 08:29:32;;;;;;;9.53;4.00;;;18.00;58.80;;;;;;4813290;29;20043;-89
2023/05/06 08:31:59;;;;;;;9.05;3.38;;;18.00;58.50;;;;;;4822950;29;20125;-89
2023/05/06 08:34:26;;;;;;;11.57;5.78;;;18.00;56.60;;;;;;4794186;29;20491;-90
2023/05/06 08:36:53;;;;;;;9.40;3.88;;;18.00;56.90;;;;;;4794091;29;20410;-89
2023/05/06 08:39:20;;;;;;;9.35;3.45;;;18.00;57.80;;;;;;4793243;29;20051;-90
2023/05/06 08:41:51;;;;;;;15.67;4.00;;;18.00;57.40;;;;;;4793197;29;20074;-89
2023/05/06 08:44:21;;;;;;;12.70;4.35;;;18.00;57.60;;;;;;4793708;29;20088;-88
2023/05/06 08:46:49;;;;;;;11.00;4.00;;;18.00;57.40;;;;;;4792185;29;20046;-89
2023/05/06 08:49:16;;;;;;;10.27;3.25;;;18.00;56.90;;;;;;4807838;29;20050;-89
2023/05/06 08:51:43;;;;;;;9.38;3.22;;;17.90;56.40;;;;;;4808993;29;20051;-89
2023/05/06 08:54:14;;;;;;;8.80;3.50;;;17.90;56.40;;;;;;4793117;29;20050;-89
2023/05/06 08:56:46;;;;;;;9.50;3.88;;;17.80;57.60;;;;;;4793407;29;20050;-89
2023/05/06 08:59:13;;;;;;;10.35;3.85;;;17.80;59.90;;;;;;4805410;29;20452;-88
2023/05/06 09:01:40;;;;;;;8.88;3.13;;;17.70;59.80;;;;;;4795577;29;20050;-88
2023/05/06 09:04:09;;;;;;;8.18;3.25;;;17.50;59.40;;;;;;4808780;29;20068;-89
2023/05/06 09:06:36;;;;;;;8.20;2.93;;;17.50;59.30;;;;;;4791644;29;20054;-87
2023/05/06 09:09:03;;;;;;;9.35;3.72;;;17.50;59.00;;;;;;4793291;29;20497;-88
2023/05/06 09:11:30;;;;;;;8.18;3.30;;;17.50;59.40;;;;;;4823058;29;20050;-88
2023/05/06 09:14:12;;;;;;;10.45;3.40;;;17.50;58.70;;;;;;4808363;29;20122;-87
2023/05/06 09:16:41;;;;;;;15.07;5.40;;;17.40;59.40;;;;;;4809946;29;20050;-87
2023/05/06 09:19:08;;;;;;;13.30;3.80;;;17.30;60.50;;;;;;4792474;29;20043;-89
2023/05/06 09:21:38;;;;;;;8.60;3.20;;;17.20;61.60;;;;;;4810848;29;20061;-88
2023/05/06 09:24:06;;;;;;;6.43;3.00;;;17.10;61.80;;;;;;4823359;29;20042;-88
2023/05/06 09:26:36;;;;;;;8.32;3.00;;;17.00;61.20;;;;;;4792256;29;20057;-88
2023/05/06 09:29:04;;;;;;;8.68;3.83;;;17.00;62.50;;;;;;4821221;29;20062;-88
2023/05/06 09:31:31;;;;;;;6.50;2.80;;;17.00;62.90;;;;;;4792862;29;20046;-88
2023/05/06 09:33:59;;;;;;;8.45;2.92;;;17.00;63.00;;;;;;4807529;29;20058;-87
2023/05/06 09:36:27;;;;;;;7.95;3.70;;;16.90;63.20;;;;;;4792465;29;20074;-87
2023/05/06 09:38:56;;;;;;;9.07;3.20;;;16.90;64.30;;;;;;4792845;29;20079;-88
2023/05/06 09:41:24;;;;;;;9.63;4.53;;;16.70;65.20;;;;;;4823270;29;20046;-88
2023/05/06 09:43:53;;;;;;;8.93;3.77;;;16.60;68.50;;;;;;4818493;29;20074;-88
2023/05/06 09:46:21;;;;;;;9.65;3.95;;;16.50;69.10;;;;;;4791484;29;20054;-88
2023/05/06 09:48:53;;;;;;;10.60;4.60;;;16.50;70.60;;;;;;4810815;29;20072;-88
2023/05/06 09:51:20;;;;;;;11.43;5.90;;;16.40;71.10;;;;;;4792672;29;20502;-88
2023/05/06 09:53:47;;;;;;;12.25;5.90;;;16.30;71.90;;;;;;4793221;29;20138;-88
2023/05/06 09:56:15;;;;;;;15.07;6.83;;;16.30;72.60;;;;;;4822530;29;20056;-88
2023/05/06 09:58:42;;;;;;;14.60;7.43;;;16.20;71.20;;;;;;4807837;29;20050;-88
2023/05/06 10:01:12;;;;;;;22.33;7.82;;;16.10;72.00;;;;;;4792191;29;20051;-88
2023/05/06 10:03:53;;;;;;;21.20;8.60;;;16.10;72.30;;;;;;4807656;29;20107;-88
2023/05/06 10:06:23;;;;;;;20.45;7.40;;;16.20;71.90;;;;;;4792414;29;20046;-88
2023/05/06 10:08:51;;;;;;;19.63;8.17;;;16.10;71.70;;;;;;4790294;29;20047;-88
2023/05/06 10:11:20;;;;;;;20.45;8.90;;;16.10;72.10;;;;;;4797518;29;20137;-88
2023/05/06 10:13:48;;;;;;;15.50;7.30;;;16.00;72.90;;;;;;4797340;29;20046;-88
2023/05/06 10:16:17;;;;;;;22.95;9.27;;;16.10;73.30;;;;;;4810831;29;20141;-88
2023/05/06 10:18:48;;;;;;;19.55;7.32;;;16.00;73.00;;;;;;4795450;29;20456;-88
2023/05/06 10:21:23;;;;;;;20.30;7.13;;;16.00;73.20;;;;;;4792689;29;20074;-88
2023/05/06 10:23:58;;;;;;;16.85;7.18;;;16.00;74.30;;;;;;4795814;29;20517;-88
2023/05/06 10:26:28;;;;;;;17.95;9.13;;;16.00;74.10;;;;;;4810192;29;20124;-85
2023/05/06 10:28:56;;;;;;;16.92;8.43;;;15.90;74.30;;;;;;4795811;29;20046;-84
2023/05/06 10:31:23;;;;;;;18.27;8.95;;;15.80;75.10;;;;;;4795603;29;20052;-84
2023/05/06 10:33:53;;;;;;;18.57;9.30;;;15.70;75.40;;;;;;4801005;29;20164;-84
2023/05/06 10:36:23;;;;;;;16.17;8.10;;;15.70;76.00;;;;;;4810556;29;20054;-84
2023/05/06 10:38:55;;;;;;;14.52;6.22;;;15.60;76.40;;;;;;4810458;29;20054;-84
2023/05/06 10:41:26;;;;;;;12.88;5.97;;;15.60;76.30;;;;;;4795513;29;20046;-84
2023/05/06 10:43:58;;;;;;;15.18;6.55;;;15.60;76.80;;;;;;4810329;29;20091;-83
2023/05/06 10:46:29;;;;;;;12.53;4.00;;;15.70;76.60;;;;;;4792019;29;20049;-84
2023/05/06 10:49:07;;;;;;;13.75;4.25;;;15.70;75.60;;;;;;4814126;29;20521;-84
2023/05/06 10:51:36;;;;;;;14.65;4.85;;;15.70;76.00;;;;;;4795330;29;20070;-84
2023/05/06 10:54:18;;;;;;;9.98;3.67;;;15.70;76.50;;;;;;4793987;29;20084;-84
2023/05/06 10:56:48;;;;;;;9.05;2.97;;;15.80;76.20;;;;;;4810375;29;20393;-85
2023/05/06 10:59:22;;;;;;;6.50;2.40;;;15.80;75.10;;;;;;4793923;29;20051;-84
2023/05/06 11:02:09;;;;;;;6.72;2.10;;;15.70;74.80;;;;;;4807744;29;20634;-85
2023/05/06 11:04:37;;;;;;;6.88;2.05;;;15.70;74.80;;;;;;4811302;29;20042;-84
2023/05/06 11:07:20;;;;;;;6.47;2.53;;;15.70;74.80;;;;;;4809886;29;20046;-85
2023/05/06 11:09:53;;;;;;;4.15;1.55;;;15.70;75.40;;;;;;4802017;29;20133;-85
2023/05/06 11:13:17;;;;;;;4.17;1.40;;;15.70;74.50;;;;;;4810984;29;20050;-85
2023/05/06 11:15:45;;;;;;;5.55;1.80;;;15.80;74.30;;;;;;4821614;29;20141;-83
2023/05/06 11:18:25;;;;;;;7.82;2.00;;;15.80;74.70;;;;;;4794235;29;20077;-84
2023/05/06 11:21:01;;;;;;;5.40;1.80;;;15.90;74.30;;;;;;4793991;29;20054;-83
2023/05/06 11:23:41;;;;;;;5.82;1.90;;;16.00;73.20;;;;;;4809157;29;20458;-83
2023/05/06 11:26:09;;;;;;;8.43;1.73;;;16.00;73.50;;;;;;4809540;29;20062;-84
2023/05/06 11:28:41;;;;;;;5.22;1.95;;;16.10;72.80;;;;;;4809247;29;20534;-84
2023/05/06 11:31:08;;;;;;;6.10;2.13;;;16.10;72.90;;;;;;4798082;29;20057;-82
2023/05/06 11:33:43;;;;;;;5.20;1.95;;;16.10;73.70;;;;;;4809091;29;20577;-82
2023/05/06 11:36:17;;;;;;;5.10;2.10;;;16.10;73.50;;;;;;4796605;29;20065;-84
2023/05/06 11:38:46;;;;;;;5.37;2.10;;;16.10;72.90;;;;;;4808449;29;20054;-82
2023/05/06 11:41:16;;;;;;;6.15;2.35;;;16.10;72.30;;;;;;4791617;29;20120;-83
2023/05/06 11:43:50;;;;;;;5.28;2.30;;;16.00;73.10;;;;;;4823567;29;20508;-82
2023/05/06 11:46:18;;;;;;;5.80;2.40;;;16.00;73.40;;;;;;4806145;29;20591;-83
2023/05/06 11:48:49;;;;;;;5.68;2.40;;;16.00;73.70;;;;;;4808661;29;20054;-83
2023/05/06 11:51:21;;;;;;;5.67;2.40;;;16.00;73.70;;;;;;4793989;29;20053;-83
2023/05/06 11:53:48;;;;;;;6.72;2.40;;;16.10;73.40;;;;;;4793928;29;20540;-83
2023/05/06 11:56:15;;;;;;;8.20;3.00;;;16.10;73.50;;;;;;4793917;29;20046;-83
2023/05/06 11:58:42;;;;;;;6.55;3.17;;;16.10;73.80;;;;;;4812618;29;20050;-85
2023/05/06 12:01:09;;;;;;;6.65;3.15;;;16.10;73.70;;;;;;4812747;29;20046;-87
2023/05/06 12:03:36;;;;;;;8.10;3.10;;;16.10;74.20;;;;;;4804727;29;20058;-85
2023/05/06 12:06:04;;;;;;;6.97;3.10;;;16.10;74.40;;;;;;4825179;29;20051;-87
2023/05/06 12:08:33;;;;;;;6.13;3.17;;;16.20;73.50;;;;;;4808807;29;20531;-86
2023/05/06 12:11:02;;;;;;;7.10;3.38;;;16.40;73.20;;;;;;4808334;29;20071;-85
2023/05/06 12:13:30;;;;;;;5.45;2.58;;;16.70;73.60;;;;;;4813321;29;20187;-86
2023/05/06 12:15:58;;;;;;;6.73;3.07;;;17.00;73.00;;;;;;4806377;29;20050;-85
2023/05/06 12:18:26;;;;;;;6.82;2.85;;;17.20;71.30;;;;;;4793456;29;20074;-87
2023/05/06 12:21:00;;;;;;;9.68;3.17;;;17.40;70.50;;;;;;4822775;29;20047;-85
2023/05/06 12:23:27;;;;;;;7.32;2.90;;;17.50;70.50;;;;;;4810892;29;20509;-85
2023/05/06 12:26:02;;;;;;;5.72;2.85;;;17.70;69.80;;;;;;4793093;29;20557;-84
2023/05/06 12:28:32;;;;;;;6.73;2.43;;;18.00;69.30;;;;;;4823962;29;20081;-84
2023/05/06 12:31:00;;;;;;;6.18;2.65;;;18.00;68.10;;;;;;4791847;29;20574;-84
2023/05/06 12:33:42;;;;;;;7.65;3.08;;;18.00;67.60;;;;;;4800563;29;20046;-85
2023/05/06 12:36:10;;;;;;;6.53;2.92;;;18.00;68.40;;;;;;4796605;29;20390;-84
2023/05/06 12:38:37;;;;;;;6.32;3.40;;;18.00;69.00;;;;;;4807832;29;20049;-84
2023/05/06 12:41:05;;;;;;;8.37;4.27;;;18.00;67.90;;;;;;4811497;29;20409;-85
2023/05/06 12:43:33;;;;;;;8.00;4.15;;;17.80;67.10;;;;;;4791021;29;20047;-84
2023/05/06 12:46:05;;;;;;;9.48;4.40;;;17.70;67.00;;;;;;4810161;29;20509;-85
2023/05/06 12:48:33;;;;;;;7.85;4.25;;;17.70;67.80;;;;;;4794310;29;20042;-84
2023/05/06 12:51:15;;;;;;;9.20;4.82;;;17.90;67.90;;;;;;4811949;29;20051;-85
2023/05/06 12:53:42;;;;;;;9.73;4.53;;;18.00;68.20;;;;;;4793186;29;20046;-84
2023/05/06 12:56:09;;;;;;;9.13;4.55;;;17.90;67.90;;;;;;4792589;29;20589;-84